sensor_id;sensor_type;location;lat;lon;timestamp;temperature;humidity
67054;SHT31;53960;51.826;5.850;2022-11-15T00:01:38;7.64;97.30
67054;SHT31;53960;51.826;5.850;2022-11-15T00:04:04;7.69;97.30
67054;SHT31;53960;51.826;5.850;2022-11-15T00:06:29;7.71;97.12
67054;SHT31;53960;51.826;5.850;2022-11-15T00:08:57;7.72;97.47
67054;SHT31;53960;51.826;5.850;2022-11-15T00:11:23;7.72;97.47
67054;SHT31;53960;51.826;5.850;2022-11-15T00:13:48;7.72;97.69
67054;SHT31;53960;51.826;5.850;2022-11-15T00:16:13;7.79;97.78
67054;SHT31;53960;51.826;5.850;2022-11-15T00:18:38;7.74;97.95
67054;SHT31;53960;51.826;5.850;2022-11-15T00:21:10;7.76;97.93
67054;SHT31;53960;51.826;5.850;2022-11-15T00:23:36;7.79;98.08
67054;SHT31;53960;51.826;5.850;2022-11-15T00:26:01;7.79;98.06
67054;SHT31;53960;51.826;5.850;2022-11-15T00:28:26;7.79;98.29
67054;SHT31;53960;51.826;5.850;2022-11-15T00:30:52;7.85;98.18
67054;SHT31;53960;51.826;5.850;2022-11-15T00:33:17;7.81;98.45
67054;SHT31;53960;51.826;5.850;2022-11-15T00:35:43;7.90;98.43
67054;SHT31;53960;51.826;5.850;2022-11-15T00:38:08;7.90;98.28
67054;SHT31;53960;51.826;5.850;2022-11-15T00:40:34;7.89;98.51
67054;SHT31;53960;51.826;5.850;2022-11-15T00:42:59;7.95;98.50
67054;SHT31;53960;51.826;5.850;2022-11-15T00:45:25;7.96;98.41
67054;SHT31;53960;51.826;5.850;2022-11-15T00:47:51;8.02;98.41
67054;SHT31;53960;51.826;5.850;2022-11-15T00:50:16;8.00;98.53
67054;SHT31;53960;51.826;5.850;2022-11-15T00:52:42;8.09;98.54
67054;SHT31;53960;51.826;5.850;2022-11-15T00:55:16;8.12;98.77
67054;SHT31;53960;51.826;5.850;2022-11-15T00:57:42;8.14;98.69
67054;SHT31;53960;51.826;5.850;2022-11-15T01:00:07;8.19;98.77
67054;SHT31;53960;51.826;5.850;2022-11-15T01:02:34;8.19;98.77
67054;SHT31;53960;51.826;5.850;2022-11-15T01:04:59;8.27;98.60
67054;SHT31;53960;51.826;5.850;2022-11-15T01:07:25;8.26;98.75
67054;SHT31;53960;51.826;5.850;2022-11-15T01:09:50;8.26;98.94
67054;SHT31;53960;51.826;5.850;2022-11-15T01:12:15;8.29;98.93
67054;SHT31;53960;51.826;5.850;2022-11-15T01:14:41;8.32;99.00
67054;SHT31;53960;51.826;5.850;2022-11-15T01:17:06;8.37;98.90
67054;SHT31;53960;51.826;5.850;2022-11-15T01:19:32;8.43;98.78
67054;SHT31;53960;51.826;5.850;2022-11-15T01:21:58;8.48;98.73
67054;SHT31;53960;51.826;5.850;2022-11-15T01:24:23;8.47;98.54
67054;SHT31;53960;51.826;5.850;2022-11-15T01:26:48;8.51;98.63
67054;SHT31;53960;51.826;5.850;2022-11-15T01:29:14;8.54;98.39
67054;SHT31;53960;51.826;5.850;2022-11-15T01:31:39;8.53;98.57
67054;SHT31;53960;51.826;5.850;2022-11-15T01:34:04;8.51;98.57
67054;SHT31;53960;51.826;5.850;2022-11-15T01:36:29;8.55;98.78
67054;SHT31;53960;51.826;5.850;2022-11-15T01:38:56;8.61;98.54
67054;SHT31;53960;51.826;5.850;2022-11-15T01:41:24;8.67;98.66
67054;SHT31;53960;51.826;5.850;2022-11-15T01:43:53;8.69;98.39
67054;SHT31;53960;51.826;5.850;2022-11-15T01:48:47;8.75;98.33
67054;SHT31;53960;51.826;5.850;2022-11-15T01:51:15;8.75;98.36
67054;SHT31;53960;51.826;5.850;2022-11-15T01:53:45;8.82;98.32
67054;SHT31;53960;51.826;5.850;2022-11-15T01:56:13;8.85;98.41
67054;SHT31;53960;51.826;5.850;2022-11-15T01:58:42;8.84;98.30
67054;SHT31;53960;51.826;5.850;2022-11-15T02:01:08;8.98;98.31
67054;SHT31;53960;51.826;5.850;2022-11-15T02:03:46;8.98;98.07
67054;SHT31;53960;51.826;5.850;2022-11-15T02:06:12;8.93;98.24
67054;SHT31;53960;51.826;5.850;2022-11-15T02:08:38;8.98;98.12
67054;SHT31;53960;51.826;5.850;2022-11-15T02:11:07;9.01;98.18
67054;SHT31;53960;51.826;5.850;2022-11-15T02:13:33;9.06;98.06
67054;SHT31;53960;51.826;5.850;2022-11-15T02:16:02;9.01;97.94
67054;SHT31;53960;51.826;5.850;2022-11-15T02:18:33;9.04;98.29
67054;SHT31;53960;51.826;5.850;2022-11-15T02:21:16;9.04;98.36
67054;SHT31;53960;51.826;5.850;2022-11-15T02:23:59;9.09;98.34
67054;SHT31;53960;51.826;5.850;2022-11-15T02:29:11;9.12;98.27
67054;SHT31;53960;51.826;5.850;2022-11-15T02:37:31;9.23;97.97
67054;SHT31;53960;51.826;5.850;2022-11-15T02:42:33;9.30;97.96
67054;SHT31;53960;51.826;5.850;2022-11-15T02:45:24;9.30;98.10
67054;SHT31;53960;51.826;5.850;2022-11-15T02:47:54;9.30;98.24
67054;SHT31;53960;51.826;5.850;2022-11-15T02:50:24;9.33;98.30
67054;SHT31;53960;51.826;5.850;2022-11-15T02:52:51;9.35;98.14
67054;SHT31;53960;51.826;5.850;2022-11-15T03:00:47;9.42;98.43
67054;SHT31;53960;51.826;5.850;2022-11-15T03:08:57;9.58;98.20
67054;SHT31;53960;51.826;5.850;2022-11-15T03:11:25;9.58;98.46
67054;SHT31;53960;51.826;5.850;2022-11-15T03:14:10;9.64;98.62
67054;SHT31;53960;51.826;5.850;2022-11-15T03:16:45;9.66;98.54
67054;SHT31;53960;51.826;5.850;2022-11-15T03:19:18;9.64;98.57
67054;SHT31;53960;51.826;5.850;2022-11-15T03:21:46;9.69;98.91
67054;SHT31;53960;51.826;5.850;2022-11-15T03:24:14;9.75;98.73
67054;SHT31;53960;51.826;5.850;2022-11-15T03:26:43;9.71;98.74
67054;SHT31;53960;51.826;5.850;2022-11-15T03:29:14;9.74;98.87
67054;SHT31;53960;51.826;5.850;2022-11-15T03:31:45;9.74;98.94
67054;SHT31;53960;51.826;5.850;2022-11-15T03:34:19;9.78;99.06
67054;SHT31;53960;51.826;5.850;2022-11-15T03:36:45;9.88;99.00
67054;SHT31;53960;51.826;5.850;2022-11-15T03:39:12;9.91;99.01
67054;SHT31;53960;51.826;5.850;2022-11-15T03:42:36;9.88;99.07
67054;SHT31;53960;51.826;5.850;2022-11-15T03:47:19;9.84;99.27
67054;SHT31;53960;51.826;5.850;2022-11-15T03:49:50;9.90;99.20
67054;SHT31;53960;51.826;5.850;2022-11-15T03:52:21;9.88;99.19
67054;SHT31;53960;51.826;5.850;2022-11-15T03:54:52;9.88;99.42
67054;SHT31;53960;51.826;5.850;2022-11-15T03:57:18;9.94;99.44
67054;SHT31;53960;51.826;5.850;2022-11-15T03:59:43;9.95;99.34
67054;SHT31;53960;51.826;5.850;2022-11-15T04:02:09;9.99;99.26
67054;SHT31;53960;51.826;5.850;2022-11-15T04:04:34;9.95;99.28
67054;SHT31;53960;51.826;5.850;2022-11-15T04:06:59;9.97;99.61
67054;SHT31;53960;51.826;5.850;2022-11-15T04:09:25;10.04;99.76
67054;SHT31;53960;51.826;5.850;2022-11-15T04:11:50;10.05;99.58
67054;SHT31;53960;51.826;5.850;2022-11-15T04:14:15;9.99;99.47
67054;SHT31;53960;51.826;5.850;2022-11-15T04:16:40;9.93;99.56
67054;SHT31;53960;51.826;5.850;2022-11-15T04:19:06;9.95;99.80
67054;SHT31;53960;51.826;5.850;2022-11-15T04:21:49;10.02;99.99
67054;SHT31;53960;51.826;5.850;2022-11-15T04:24:33;10.06;99.96
67054;SHT31;53960;51.826;5.850;2022-11-15T04:26:59;10.08;99.82
67054;SHT31;53960;51.826;5.850;2022-11-15T04:29:24;10.06;99.89
67054;SHT31;53960;51.826;5.850;2022-11-15T04:32:06;10.08;99.77
67054;SHT31;53960;51.826;5.850;2022-11-15T04:34:32;10.15;99.83
67054;SHT31;53960;51.826;5.850;2022-11-15T04:36:58;10.19;99.80
67054;SHT31;53960;51.826;5.850;2022-11-15T04:39:39;10.21;99.79
67054;SHT31;53960;51.826;5.850;2022-11-15T04:42:05;10.25;99.80
67054;SHT31;53960;51.826;5.850;2022-11-15T04:44:30;10.24;99.79
67054;SHT31;53960;51.826;5.850;2022-11-15T04:46:56;10.28;99.87
67054;SHT31;53960;51.826;5.850;2022-11-15T04:49:21;10.34;99.83
67054;SHT31;53960;51.826;5.850;2022-11-15T04:51:46;10.34;99.94
67054;SHT31;53960;51.826;5.850;2022-11-15T04:54:12;10.36;99.85
67054;SHT31;53960;51.826;5.850;2022-11-15T04:56:37;10.38;99.71
67054;SHT31;53960;51.826;5.850;2022-11-15T04:59:02;10.35;99.76
67054;SHT31;53960;51.826;5.850;2022-11-15T05:01:28;10.32;99.88
67054;SHT31;53960;51.826;5.850;2022-11-15T05:03:53;10.32;99.88
67054;SHT31;53960;51.826;5.850;2022-11-15T05:06:37;10.42;99.99
67054;SHT31;53960;51.826;5.850;2022-11-15T05:09:03;10.39;99.90
67054;SHT31;53960;51.826;5.850;2022-11-15T05:11:29;10.39;99.98
67054;SHT31;53960;51.826;5.850;2022-11-15T05:13:54;10.43;99.99
67054;SHT31;53960;51.826;5.850;2022-11-15T05:16:20;10.45;99.99
67054;SHT31;53960;51.826;5.850;2022-11-15T05:18:45;10.45;99.99
67054;SHT31;53960;51.826;5.850;2022-11-15T05:21:13;10.48;99.99
67054;SHT31;53960;51.826;5.850;2022-11-15T05:23:39;10.49;99.89
67054;SHT31;53960;51.826;5.850;2022-11-15T05:26:06;10.42;99.88
67054;SHT31;53960;51.826;5.850;2022-11-15T05:28:32;10.43;99.99
67054;SHT31;53960;51.826;5.850;2022-11-15T05:31:06;10.46;99.99
67054;SHT31;53960;51.826;5.850;2022-11-15T05:33:33;10.49;99.91
67054;SHT31;53960;51.826;5.850;2022-11-15T05:36:04;10.55;99.99
67054;SHT31;53960;51.826;5.850;2022-11-15T05:38:30;10.53;99.85
67054;SHT31;53960;51.826;5.850;2022-11-15T05:40:55;10.52;99.86
67054;SHT31;53960;51.826;5.850;2022-11-15T05:43:21;10.53;99.99
67054;SHT31;53960;51.826;5.850;2022-11-15T05:45:47;10.53;99.94
67054;SHT31;53960;51.826;5.850;2022-11-15T05:48:13;10.53;99.99
67054;SHT31;53960;51.826;5.850;2022-11-15T05:50:42;10.48;99.92
67054;SHT31;53960;51.826;5.850;2022-11-15T05:53:09;10.57;99.99
67054;SHT31;53960;51.826;5.850;2022-11-15T05:55:37;10.59;99.96
67054;SHT31;53960;51.826;5.850;2022-11-15T05:58:04;10.62;99.98
67054;SHT31;53960;51.826;5.850;2022-11-15T06:00:29;10.62;99.99
67054;SHT31;53960;51.826;5.850;2022-11-15T06:02:54;10.63;99.99
67054;SHT31;53960;51.826;5.850;2022-11-15T06:05:19;10.66;99.99
67054;SHT31;53960;51.826;5.850;2022-11-15T06:07:45;10.66;99.92
67054;SHT31;53960;51.826;5.850;2022-11-15T06:10:10;10.67;99.99
67054;SHT31;53960;51.826;5.850;2022-11-15T06:12:36;10.64;99.93
67054;SHT31;53960;51.826;5.850;2022-11-15T06:15:01;10.62;99.91
67054;SHT31;53960;51.826;5.850;2022-11-15T06:17:26;10.59;99.96
67054;SHT31;53960;51.826;5.850;2022-11-15T06:19:52;10.62;99.99
67054;SHT31;53960;51.826;5.850;2022-11-15T06:22:17;10.60;99.99
67054;SHT31;53960;51.826;5.850;2022-11-15T06:24:42;10.62;99.99
67054;SHT31;53960;51.826;5.850;2022-11-15T06:27:10;10.60;99.99
67054;SHT31;53960;51.826;5.850;2022-11-15T06:29:35;10.60;99.99
67054;SHT31;53960;51.826;5.850;2022-11-15T06:32:00;10.64;99.99
67054;SHT31;53960;51.826;5.850;2022-11-15T06:34:26;10.63;99.99
67054;SHT31;53960;51.826;5.850;2022-11-15T06:36:51;10.59;99.99
67054;SHT31;53960;51.826;5.850;2022-11-15T06:39:16;10.64;99.99
67054;SHT31;53960;51.826;5.850;2022-11-15T06:41:42;10.67;99.99
67054;SHT31;53960;51.826;5.850;2022-11-15T06:44:07;10.74;99.99
67054;SHT31;53960;51.826;5.850;2022-11-15T06:46:32;10.74;99.99
67054;SHT31;53960;51.826;5.850;2022-11-15T06:48:57;10.66;99.99
67054;SHT31;53960;51.826;5.850;2022-11-15T06:51:23;10.67;99.99
67054;SHT31;53960;51.826;5.850;2022-11-15T06:53:48;10.74;99.99
67054;SHT31;53960;51.826;5.850;2022-11-15T06:56:13;10.72;99.99
67054;SHT31;53960;51.826;5.850;2022-11-15T06:58:38;10.72;99.99
67054;SHT31;53960;51.826;5.850;2022-11-15T07:01:06;10.73;99.99
67054;SHT31;53960;51.826;5.850;2022-11-15T07:03:34;10.79;99.99
67054;SHT31;53960;51.826;5.850;2022-11-15T07:06:00;10.74;99.99
67054;SHT31;53960;51.826;5.850;2022-11-15T07:08:27;10.74;99.99
67054;SHT31;53960;51.826;5.850;2022-11-15T07:10:53;10.67;99.99
67054;SHT31;53960;51.826;5.850;2022-11-15T07:13:18;10.66;99.99
67054;SHT31;53960;51.826;5.850;2022-11-15T07:15:44;10.67;99.99
67054;SHT31;53960;51.826;5.850;2022-11-15T07:18:09;10.66;99.99
67054;SHT31;53960;51.826;5.850;2022-11-15T07:20:34;10.59;99.99
67054;SHT31;53960;51.826;5.850;2022-11-15T07:23:01;10.57;99.99
67054;SHT31;53960;51.826;5.850;2022-11-15T07:25:27;10.57;99.99
67054;SHT31;53960;51.826;5.850;2022-11-15T07:27:59;10.56;99.99
67054;SHT31;53960;51.826;5.850;2022-11-15T07:30:26;10.59;99.99
67054;SHT31;53960;51.826;5.850;2022-11-15T07:32:57;10.62;99.99
67054;SHT31;53960;51.826;5.850;2022-11-15T07:35:24;10.63;99.99
67054;SHT31;53960;51.826;5.850;2022-11-15T07:37:58;10.69;99.99
67054;SHT31;53960;51.826;5.850;2022-11-15T07:40:24;10.67;99.99
67054;SHT31;53960;51.826;5.850;2022-11-15T07:42:50;10.74;99.99
67054;SHT31;53960;51.826;5.850;2022-11-15T07:45:18;10.74;99.99
67054;SHT31;53960;51.826;5.850;2022-11-15T07:47:48;10.80;99.99
67054;SHT31;53960;51.826;5.850;2022-11-15T07:50:13;10.77;99.99
67054;SHT31;53960;51.826;5.850;2022-11-15T07:52:39;10.74;99.99
67054;SHT31;53960;51.826;5.850;2022-11-15T07:55:04;10.74;99.99
67054;SHT31;53960;51.826;5.850;2022-11-15T07:57:30;10.76;99.99
67054;SHT31;53960;51.826;5.850;2022-11-15T07:59:55;10.80;99.99
67054;SHT31;53960;51.826;5.850;2022-11-15T08:02:21;10.80;99.99
67054;SHT31;53960;51.826;5.850;2022-11-15T08:04:46;10.84;99.99
67054;SHT31;53960;51.826;5.850;2022-11-15T08:07:11;10.87;99.99
67054;SHT31;53960;51.826;5.850;2022-11-15T08:09:37;10.92;99.99
67054;SHT31;53960;51.826;5.850;2022-11-15T08:12:02;10.87;99.99
67054;SHT31;53960;51.826;5.850;2022-11-15T08:14:27;10.97;99.99
67054;SHT31;53960;51.826;5.850;2022-11-15T08:16:54;11.00;99.99
67054;SHT31;53960;51.826;5.850;2022-11-15T08:19:19;10.97;99.99
67054;SHT31;53960;51.826;5.850;2022-11-15T08:21:45;10.97;99.99
67054;SHT31;53960;51.826;5.850;2022-11-15T08:24:10;11.01;99.99
67054;SHT31;53960;51.826;5.850;2022-11-15T08:26:36;11.04;99.96
67054;SHT31;53960;51.826;5.850;2022-11-15T08:29:01;11.07;99.75
67054;SHT31;53960;51.826;5.850;2022-11-15T08:31:26;11.08;99.59
67054;SHT31;53960;51.826;5.850;2022-11-15T08:33:52;11.01;99.47
67054;SHT31;53960;51.826;5.850;2022-11-15T08:36:17;11.03;99.48
67054;SHT31;53960;51.826;5.850;2022-11-15T08:38:43;11.04;99.28
67054;SHT31;53960;51.826;5.850;2022-11-15T08:41:27;11.03;99.30
67054;SHT31;53960;51.826;5.850;2022-11-15T08:43:53;11.07;99.07
67054;SHT31;53960;51.826;5.850;2022-11-15T08:46:18;11.00;99.16
67054;SHT31;53960;51.826;5.850;2022-11-15T08:48:44;10.99;99.37
67054;SHT31;53960;51.826;5.850;2022-11-15T08:51:09;10.97;99.46
67054;SHT31;53960;51.826;5.850;2022-11-15T08:53:34;10.99;99.48
67054;SHT31;53960;51.826;5.850;2022-11-15T08:56:00;11.00;99.48
67054;SHT31;53960;51.826;5.850;2022-11-15T08:58:25;11.00;99.31
67054;SHT31;53960;51.826;5.850;2022-11-15T09:00:51;10.97;99.26
67054;SHT31;53960;51.826;5.850;2022-11-15T09:03:16;10.99;99.33
67054;SHT31;53960;51.826;5.850;2022-11-15T09:05:41;11.00;99.16
67054;SHT31;53960;51.826;5.850;2022-11-15T09:08:07;11.04;99.04
67054;SHT31;53960;51.826;5.850;2022-11-15T09:10:32;11.03;98.74
67054;SHT31;53960;51.826;5.850;2022-11-15T09:12:58;11.04;98.69
67054;SHT31;53960;51.826;5.850;2022-11-15T09:15:23;11.07;98.56
67054;SHT31;53960;51.826;5.850;2022-11-15T09:17:48;11.06;98.38
67054;SHT31;53960;51.826;5.850;2022-11-15T09:20:14;11.04;98.49
67054;SHT31;53960;51.826;5.850;2022-11-15T09:22:39;11.04;98.39
67054;SHT31;53960;51.826;5.850;2022-11-15T09:25:05;11.01;98.27
67054;SHT31;53960;51.826;5.850;2022-11-15T09:27:31;11.10;97.97
67054;SHT31;53960;51.826;5.850;2022-11-15T09:29:57;11.20;97.55
67054;SHT31;53960;51.826;5.850;2022-11-15T09:32:22;11.14;97.34
67054;SHT31;53960;51.826;5.850;2022-11-15T09:34:49;11.20;97.27
67054;SHT31;53960;51.826;5.850;2022-11-15T09:37:14;11.21;97.16
67054;SHT31;53960;51.826;5.850;2022-11-15T09:39:40;11.21;97.06
67054;SHT31;53960;51.826;5.850;2022-11-15T09:47:57;11.30;96.99
67054;SHT31;53960;51.826;5.850;2022-11-15T09:50:41;11.34;96.80
67054;SHT31;53960;51.826;5.850;2022-11-15T09:53:11;11.34;96.53
67054;SHT31;53960;51.826;5.850;2022-11-15T09:55:50;11.35;96.34
67054;SHT31;53960;51.826;5.850;2022-11-15T09:58:29;11.45;96.31
67054;SHT31;53960;51.826;5.850;2022-11-15T10:00:57;11.45;96.03
67054;SHT31;53960;51.826;5.850;2022-11-15T10:03:31;11.54;95.92
67054;SHT31;53960;51.826;5.850;2022-11-15T10:06:01;11.58;95.75
67054;SHT31;53960;51.826;5.850;2022-11-15T10:08:34;11.58;94.69
67054;SHT31;53960;51.826;5.850;2022-11-15T10:11:08;11.54;94.71
67054;SHT31;53960;51.826;5.850;2022-11-15T10:13:37;11.54;94.85
67054;SHT31;53960;51.826;5.850;2022-11-15T10:21:55;11.51;93.54
67054;SHT31;53960;51.826;5.850;2022-11-15T10:24:27;11.54;93.24
67054;SHT31;53960;51.826;5.850;2022-11-15T10:26:56;11.52;93.34
67054;SHT31;53960;51.826;5.850;2022-11-15T10:29:23;11.52;92.32
67054;SHT31;53960;51.826;5.850;2022-11-15T10:31:49;11.48;91.23
67054;SHT31;53960;51.826;5.850;2022-11-15T10:34:22;11.52;91.30
67054;SHT31;53960;51.826;5.850;2022-11-15T10:36:58;11.50;89.99
67054;SHT31;53960;51.826;5.850;2022-11-15T10:39:24;11.51;90.10
67054;SHT31;53960;51.826;5.850;2022-11-15T10:41:50;11.50;90.06
67054;SHT31;53960;51.826;5.850;2022-11-15T10:46:43;11.68;86.96
67054;SHT31;53960;51.826;5.850;2022-11-15T10:49:19;11.66;85.60
67054;SHT31;53960;51.826;5.850;2022-11-15T10:51:46;11.66;85.79
67054;SHT31;53960;51.826;5.850;2022-11-15T10:54:20;11.66;85.68
67054;SHT31;53960;51.826;5.850;2022-11-15T10:56:51;11.57;85.67
67054;SHT31;53960;51.826;5.850;2022-11-15T10:59:24;11.59;84.18
67054;SHT31;53960;51.826;5.850;2022-11-15T11:01:51;11.58;83.78
67054;SHT31;53960;51.826;5.850;2022-11-15T11:04:16;11.58;84.79
67054;SHT31;53960;51.826;5.850;2022-11-15T11:06:53;11.59;83.83
67054;SHT31;53960;51.826;5.850;2022-11-15T11:09:32;11.66;82.67
67054;SHT31;53960;51.826;5.850;2022-11-15T11:11:59;11.63;82.84
67054;SHT31;53960;51.826;5.850;2022-11-15T11:14:28;11.65;84.14
67054;SHT31;53960;51.826;5.850;2022-11-15T11:25:26;11.86;81.93
67054;SHT31;53960;51.826;5.850;2022-11-15T11:31:21;12.02;81.77
67054;SHT31;53960;51.826;5.850;2022-11-15T11:36:40;11.99;80.80
67054;SHT31;53960;51.826;5.850;2022-11-15T11:41:53;11.99;81.53
67054;SHT31;53960;51.826;5.850;2022-11-15T11:44:43;12.00;82.54
67054;SHT31;53960;51.826;5.850;2022-11-15T11:47:15;12.06;81.70
67054;SHT31;53960;51.826;5.850;2022-11-15T11:50:15;12.16;81.89
67054;SHT31;53960;51.826;5.850;2022-11-15T11:55:20;12.13;81.85
67054;SHT31;53960;51.826;5.850;2022-11-15T11:58:12;12.10;80.59
67054;SHT31;53960;51.826;5.850;2022-11-15T12:00:41;12.07;79.57
67054;SHT31;53960;51.826;5.850;2022-11-15T12:05:51;11.97;78.76
67054;SHT31;53960;51.826;5.850;2022-11-15T12:08:27;11.94;78.19
67054;SHT31;53960;51.826;5.850;2022-11-15T12:11:17;11.97;77.91
67054;SHT31;53960;51.826;5.850;2022-11-15T12:13:47;11.99;78.35
67054;SHT31;53960;51.826;5.850;2022-11-15T12:16:23;12.03;78.09
67054;SHT31;53960;51.826;5.850;2022-11-15T12:18:53;12.02;78.64
67054;SHT31;53960;51.826;5.850;2022-11-15T12:27:29;12.09;78.76
67054;SHT31;53960;51.826;5.850;2022-11-15T12:29:58;12.10;79.34
67054;SHT31;53960;51.826;5.850;2022-11-15T12:32:31;12.12;79.31
67054;SHT31;53960;51.826;5.850;2022-11-15T12:34:58;12.13;79.01
67054;SHT31;53960;51.826;5.850;2022-11-15T12:45:24;12.31;77.18
67054;SHT31;53960;51.826;5.850;2022-11-15T12:47:50;12.27;78.19
67054;SHT31;53960;51.826;5.850;2022-11-15T12:50:16;12.24;77.54
67054;SHT31;53960;51.826;5.850;2022-11-15T12:58:42;12.26;76.49
67054;SHT31;53960;51.826;5.850;2022-11-15T13:01:09;12.26;76.92
67054;SHT31;53960;51.826;5.850;2022-11-15T13:03:35;12.26;76.83
67054;SHT31;53960;51.826;5.850;2022-11-15T13:11:53;12.30;75.48
67054;SHT31;53960;51.826;5.850;2022-11-15T13:35:52;12.21;75.36
67054;SHT31;53960;51.826;5.850;2022-11-15T13:38:39;12.17;75.96
67054;SHT31;53960;51.826;5.850;2022-11-15T13:41:21;12.16;76.04
67054;SHT31;53960;51.826;5.850;2022-11-15T13:43:49;12.13;75.67
67054;SHT31;53960;51.826;5.850;2022-11-15T13:46:31;12.10;76.13
67054;SHT31;53960;51.826;5.850;2022-11-15T13:49:05;12.04;76.39
67054;SHT31;53960;51.826;5.850;2022-11-15T13:51:49;12.10;76.35
67054;SHT31;53960;51.826;5.850;2022-11-15T13:54:20;12.10;75.34
67054;SHT31;53960;51.826;5.850;2022-11-15T13:56:55;12.10;74.78
67054;SHT31;53960;51.826;5.850;2022-11-15T13:59:34;12.12;74.84
67054;SHT31;53960;51.826;5.850;2022-11-15T14:02:12;12.10;75.34
67054;SHT31;53960;51.826;5.850;2022-11-15T14:04:45;12.07;74.29
67054;SHT31;53960;51.826;5.850;2022-11-15T14:07:20;12.06;74.83
67054;SHT31;53960;51.826;5.850;2022-11-15T14:09:47;12.00;75.18
67054;SHT31;53960;51.826;5.850;2022-11-15T14:12:34;11.96;75.38
67054;SHT31;53960;51.826;5.850;2022-11-15T14:15:18;11.94;75.17
67054;SHT31;53960;51.826;5.850;2022-11-15T14:17:43;11.90;75.86
67054;SHT31;53960;51.826;5.850;2022-11-15T14:20:26;11.90;76.25
67054;SHT31;53960;51.826;5.850;2022-11-15T14:23:01;11.86;76.67
67054;SHT31;53960;51.826;5.850;2022-11-15T14:25:29;11.82;76.43
67054;SHT31;53960;51.826;5.850;2022-11-15T14:30:47;11.85;76.08
67054;SHT31;53960;51.826;5.850;2022-11-15T14:35:55;11.89;76.03
67054;SHT31;53960;51.826;5.850;2022-11-15T14:38:25;11.82;77.00
67054;SHT31;53960;51.826;5.850;2022-11-15T14:40:51;11.81;76.65
67054;SHT31;53960;51.826;5.850;2022-11-15T14:43:16;11.82;76.27
67054;SHT31;53960;51.826;5.850;2022-11-15T14:45:42;11.85;75.68
67054;SHT31;53960;51.826;5.850;2022-11-15T14:48:08;11.89;75.61
67054;SHT31;53960;51.826;5.850;2022-11-15T14:50:34;11.86;76.62
67054;SHT31;53960;51.826;5.850;2022-11-15T14:53:00;11.83;76.45
67054;SHT31;53960;51.826;5.850;2022-11-15T14:55:28;11.89;75.40
67054;SHT31;53960;51.826;5.850;2022-11-15T14:57:57;11.89;75.95
67054;SHT31;53960;51.826;5.850;2022-11-15T15:00:23;11.86;75.93
67054;SHT31;53960;51.826;5.850;2022-11-15T15:02:51;11.86;76.04
67054;SHT31;53960;51.826;5.850;2022-11-15T15:05:23;11.82;76.33
67054;SHT31;53960;51.826;5.850;2022-11-15T15:07:50;11.81;76.08
67054;SHT31;53960;51.826;5.850;2022-11-15T15:10:17;11.85;75.71
67054;SHT31;53960;51.826;5.850;2022-11-15T15:12:42;11.85;76.46
67054;SHT31;53960;51.826;5.850;2022-11-15T15:15:16;11.83;75.68
67054;SHT31;53960;51.826;5.850;2022-11-15T15:17:42;11.85;75.63
67054;SHT31;53960;51.826;5.850;2022-11-15T15:20:08;11.86;75.25
67054;SHT31;53960;51.826;5.850;2022-11-15T15:22:34;11.90;74.61
67054;SHT31;53960;51.826;5.850;2022-11-15T15:24:59;11.92;75.32
67054;SHT31;53960;51.826;5.850;2022-11-15T15:27:25;11.92;75.30
67054;SHT31;53960;51.826;5.850;2022-11-15T15:29:50;11.86;76.00
67054;SHT31;53960;51.826;5.850;2022-11-15T15:32:15;11.83;76.11
67054;SHT31;53960;51.826;5.850;2022-11-15T15:34:42;11.90;76.15
67054;SHT31;53960;51.826;5.850;2022-11-15T15:37:23;11.89;76.65
67054;SHT31;53960;51.826;5.850;2022-11-15T15:39:53;11.87;76.66
67054;SHT31;53960;51.826;5.850;2022-11-15T15:42:20;11.92;76.68
67054;SHT31;53960;51.826;5.850;2022-11-15T15:44:46;11.94;77.04
67054;SHT31;53960;51.826;5.850;2022-11-15T15:47:20;11.94;77.23
67054;SHT31;53960;51.826;5.850;2022-11-15T15:49:47;11.92;77.11
67054;SHT31;53960;51.826;5.850;2022-11-15T15:52:12;11.94;77.42
67054;SHT31;53960;51.826;5.850;2022-11-15T15:54:38;11.97;77.83
67054;SHT31;53960;51.826;5.850;2022-11-15T15:57:05;12.02;77.89
67054;SHT31;53960;51.826;5.850;2022-11-15T15:59:30;12.04;78.19
67054;SHT31;53960;51.826;5.850;2022-11-15T16:01:56;12.02;78.52
67054;SHT31;53960;51.826;5.850;2022-11-15T16:04:21;11.96;79.27
67054;SHT31;53960;51.826;5.850;2022-11-15T16:06:47;12.03;79.00
67054;SHT31;53960;51.826;5.850;2022-11-15T16:09:16;12.02;78.82
67054;SHT31;53960;51.826;5.850;2022-11-15T16:11:44;12.10;78.82
67054;SHT31;53960;51.826;5.850;2022-11-15T16:14:09;12.14;78.98
67054;SHT31;53960;51.826;5.850;2022-11-15T16:16:35;12.14;79.08
67054;SHT31;53960;51.826;5.850;2022-11-15T16:19:01;12.12;79.66
67054;SHT31;53960;51.826;5.850;2022-11-15T16:21:27;12.10;79.44
67054;SHT31;53960;51.826;5.850;2022-11-15T16:23:52;12.12;79.85
67054;SHT31;53960;51.826;5.850;2022-11-15T16:28:47;12.14;79.67
67054;SHT31;53960;51.826;5.850;2022-11-15T16:31:13;12.14;80.04
67054;SHT31;53960;51.826;5.850;2022-11-15T16:33:39;12.21;79.85
67054;SHT31;53960;51.826;5.850;2022-11-15T16:36:06;12.20;79.79
67054;SHT31;53960;51.826;5.850;2022-11-15T16:38:37;12.21;80.00
67054;SHT31;53960;51.826;5.850;2022-11-15T16:41:04;12.24;79.88
67054;SHT31;53960;51.826;5.850;2022-11-15T16:43:29;12.21;80.16
67054;SHT31;53960;51.826;5.850;2022-11-15T16:45:54;12.17;80.58
67054;SHT31;53960;51.826;5.850;2022-11-15T16:48:22;12.21;80.18
67054;SHT31;53960;51.826;5.850;2022-11-15T16:50:49;12.27;80.16
67054;SHT31;53960;51.826;5.850;2022-11-15T16:53:14;12.29;80.09
67054;SHT31;53960;51.826;5.850;2022-11-15T16:55:39;12.33;80.28
67054;SHT31;53960;51.826;5.850;2022-11-15T16:58:05;12.33;80.14
67054;SHT31;53960;51.826;5.850;2022-11-15T17:00:30;12.31;80.42
67054;SHT31;53960;51.826;5.850;2022-11-15T17:02:56;12.38;80.18
67054;SHT31;53960;51.826;5.850;2022-11-15T17:05:23;12.40;80.28
67054;SHT31;53960;51.826;5.850;2022-11-15T17:07:51;12.45;80.25
67054;SHT31;53960;51.826;5.850;2022-11-15T17:10:19;12.45;80.47
67054;SHT31;53960;51.826;5.850;2022-11-15T17:12:45;12.48;80.69
67054;SHT31;53960;51.826;5.850;2022-11-15T17:15:12;12.44;80.95
67054;SHT31;53960;51.826;5.850;2022-11-15T17:17:38;12.38;82.00
67054;SHT31;53960;51.826;5.850;2022-11-15T17:20:04;12.33;82.76
67054;SHT31;53960;51.826;5.850;2022-11-15T17:22:34;12.30;83.49
67054;SHT31;53960;51.826;5.850;2022-11-15T17:25:00;12.24;83.90
67054;SHT31;53960;51.826;5.850;2022-11-15T17:27:25;12.19;84.47
67054;SHT31;53960;51.826;5.850;2022-11-15T17:29:50;12.17;84.97
67054;SHT31;53960;51.826;5.850;2022-11-15T17:32:15;12.10;85.44
67054;SHT31;53960;51.826;5.850;2022-11-15T17:34:41;12.09;85.83
67054;SHT31;53960;51.826;5.850;2022-11-15T17:37:06;12.03;86.23
67054;SHT31;53960;51.826;5.850;2022-11-15T17:39:31;11.92;87.20
67054;SHT31;53960;51.826;5.850;2022-11-15T17:41:57;11.90;87.49